Time;durP1;ratioP1;P1;durP2;ratioP2;P2;SDS_P1;SDS_P2;PMS_P1;PMS_P2;Temp;Humidity;BMP_temperature;BMP_pressure;BME280_temperature;BME280_humidity;BME280_pressure;Samples;Min_cycle;Max_cycle;Signal;HPM_P1;HPM_P2
2022/07/30 00:02:17;;;;;;;13.20;4.28;;;;;;;22.88;47.75;93964.44;5125594;28;20026;-76
2022/07/30 00:04:43;;;;;;;7.45;4.50;;;;;;;22.83;47.96;93962.88;5125591;28;20061;-76
2022/07/30 00:07:09;;;;;;;9.30;4.35;;;;;;;22.75;47.86;93960.53;5125498;28;20274;-76
2022/07/30 00:09:34;;;;;;;8.65;4.03;;;;;;;22.68;46.98;93957.84;5125484;28;20022;-76
2022/07/30 00:12:00;;;;;;;7.20;3.55;;;;;;;22.63;46.28;93954.34;5125499;28;20236;-76
2022/07/30 00:14:25;;;;;;;6.40;3.10;;;;;;;22.59;46.82;93952.78;5125468;28;20067;-76
2022/07/30 00:16:52;;;;;;;5.10;2.60;;;;;;;22.51;46.21;93948.50;5125197;27;20043;-76
2022/07/30 00:19:18;;;;;;;10.50;3.30;;;;;;;22.46;45.89;93951.59;5125105;28;20038;-76
2022/07/30 00:21:43;;;;;;;7.07;3.65;;;;;;;22.39;46.75;93942.28;5125334;28;20274;-76
2022/07/30 00:24:09;;;;;;;5.38;3.65;;;;;;;22.32;46.99;93952.38;5125361;28;20031;-76
2022/07/30 00:26:35;;;;;;;4.78;3.15;;;;;;;22.31;47.49;93956.22;5124870;28;20081;-76
2022/07/30 00:29:00;;;;;;;12.77;3.80;;;;;;;22.30;47.87;93943.81;5125092;28;20069;-76
2022/07/30 00:31:26;;;;;;;5.82;3.40;;;;;;;22.27;48.03;93947.28;5124944;28;20023;-75
2022/07/30 00:33:51;;;;;;;6.25;3.83;;;;;;;22.23;47.59;93948.09;5124949;28;20076;-76
2022/07/30 00:36:17;;;;;;;5.35;2.95;;;;;;;22.21;47.37;93947.66;5124813;28;20020;-76
2022/07/30 00:38:42;;;;;;;6.20;3.58;;;;;;;22.18;47.53;93948.41;5124885;28;20023;-76
2022/07/30 00:41:08;;;;;;;9.13;3.55;;;;;;;22.18;47.50;93950.34;5124984;28;20030;-76
2022/07/30 00:43:34;;;;;;;12.60;4.00;;;;;;;22.20;47.95;93945.31;5124855;28;20070;-76
2022/07/30 00:45:59;;;;;;;8.93;3.45;;;;;;;22.21;48.53;93942.22;5124447;28;20044;-76
2022/07/30 00:48:25;;;;;;;9.07;3.38;;;;;;;22.20;48.69;93937.94;5124662;28;20023;-76
2022/07/30 00:50:50;;;;;;;6.20;4.00;;;;;;;22.20;49.08;93954.22;5124759;28;20023;-75
2022/07/30 00:53:16;;;;;;;9.50;4.93;;;;;;;22.15;48.82;93943.00;5124577;28;20024;-76
2022/07/30 00:55:41;;;;;;;8.30;4.00;;;;;;;22.12;47.69;93947.25;5124532;28;20027;-76
2022/07/30 00:58:07;;;;;;;6.10;4.45;;;;;;;22.15;48.42;93943.78;5124398;28;20309;-76
2022/07/30 01:00:32;;;;;;;5.28;3.75;;;;;;;22.07;47.09;93944.91;5124489;28;20032;-76
2022/07/30 01:02:58;;;;;;;9.00;3.85;;;;;;;22.02;48.65;93940.66;5123705;28;20085;-76
2022/07/30 01:05:23;;;;;;;4.93;2.95;;;;;;;21.96;47.84;93938.66;5124095;28;20098;-76
2022/07/30 01:07:50;;;;;;;7.70;3.40;;;;;;;21.98;47.12;93936.34;5124142;28;20081;-77
2022/07/30 01:10:16;;;;;;;4.72;3.65;;;;;;;22.06;48.09;93950.72;5124424;28;20023;-76
2022/07/30 01:12:42;;;;;;;6.35;3.55;;;;;;;22.02;47.64;93948.00;5124311;28;20300;-77
2022/07/30 01:15:11;;;;;;;8.98;3.88;;;;;;;22.00;48.50;93942.16;5123988;27;20098;-76
2022/07/30 01:17:38;;;;;;;7.13;4.10;;;;;;;21.97;48.84;93953.81;5123875;28;20035;-76
2022/07/30 01:20:06;;;;;;;9.07;5.00;;;;;;;21.89;49.04;93941.38;5124110;28;20083;-76
2022/07/30 01:22:53;;;;;;;6.32;4.35;;;;;;;21.85;49.34;93944.06;5123845;28;20051;-76
2022/07/30 01:25:31;;;;;;;6.70;4.53;;;;;;;21.84;49.83;93943.31;5124038;28;20030;-76
2022/07/30 01:28:04;;;;;;;7.72;4.38;;;;;;;21.88;49.90;93945.22;5123688;28;20382;-76
2022/07/30 01:30:33;;;;;;;7.32;4.60;;;;;;;21.92;50.57;93944.09;5123814;28;20030;-76
2022/07/30 01:32:59;;;;;;;7.63;4.10;;;;;;;21.92;50.68;93946.03;5123790;28;20030;-77
2022/07/30 01:35:28;;;;;;;6.80;4.57;;;;;;;21.90;50.77;93945.63;5123707;28;20027;-77
2022/07/30 01:37:55;;;;;;;11.20;4.68;;;;;;;21.86;51.16;93947.56;5123956;28;20260;-77
2022/07/30 01:40:22;;;;;;;6.43;4.38;;;;;;;21.84;51.43;93946.00;5123725;28;20027;-77
2022/07/30 01:42:53;;;;;;;11.20;4.68;;;;;;;21.78;52.14;93944.84;5123681;28;20039;-77
2022/07/30 01:45:22;;;;;;;10.32;5.03;;;;;;;21.75;52.34;93948.28;5123695;28;20024;-77
2022/07/30 01:47:50;;;;;;;11.32;5.22;;;;;;;21.71;52.79;93946.72;5123593;28;20307;-77
2022/07/30 01:50:18;;;;;;;14.82;4.90;;;;;;;21.66;52.94;93955.22;5123492;28;20048;-77
2022/07/30 01:52:46;;;;;;;5.75;4.13;;;;;;;21.58;52.01;93949.00;5123558;28;20262;-77
2022/07/30 01:55:16;;;;;;;6.78;4.55;;;;;;;21.45;52.08;93953.97;5123721;28;20043;-77
2022/07/30 01:57:44;;;;;;;7.18;4.57;;;;;;;21.39;51.59;93961.69;5123618;28;20067;-76
2022/07/30 02:00:11;;;;;;;7.65;4.88;;;;;;;21.35;52.13;93958.16;5123554;28;20023;-76
2022/07/30 02:02:39;;;;;;;7.35;4.95;;;;;;;21.34;52.88;93956.59;5123329;28;20030;-76
2022/07/30 02:05:05;;;;;;;7.03;5.00;;;;;;;21.33;53.40;93951.56;5123476;28;20214;-76
2022/07/30 02:07:48;;;;;;;6.95;5.15;;;;;;;21.30;53.58;93947.66;5123145;28;20027;-76
2022/07/30 02:10:22;;;;;;;7.30;4.63;;;;;;;21.24;54.07;93949.19;5123784;28;20019;-76
2022/07/30 02:12:51;;;;;;;8.10;5.32;;;;;;;21.21;53.38;93939.88;5123283;28;20213;-76
2022/07/30 02:15:29;;;;;;;7.90;5.57;;;;;;;21.15;53.87;93946.06;5125212;28;20355;-76
2022/07/30 02:18:09;;;;;;;9.65;5.00;;;;;;;21.14;54.31;93939.06;5127442;28;20043;-76
2022/07/30 02:20:34;;;;;;;8.10;5.00;;;;;;;21.13;54.53;93927.44;5127756;28;20094;-76
2022/07/30 02:23:05;;;;;;;8.77;5.07;;;;;;;21.11;54.60;93923.56;5127553;28;20028;-76
2022/07/30 02:25:33;;;;;;;7.05;4.90;;;;;;;21.04;55.12;93935.13;5126295;28;20069;-76
2022/07/30 02:28:04;;;;;;;10.38;5.22;;;;;;;21.06;55.14;93940.16;5127339;28;20030;-76
2022/07/30 02:30:33;;;;;;;7.95;5.05;;;;;;;20.98;55.22;93945.53;5127130;28;20027;-77
2022/07/30 02:33:03;;;;;;;7.93;5.10;;;;;;;20.96;55.11;93947.06;5127274;28;20314;-76
2022/07/30 02:35:30;;;;;;;9.20;5.43;;;;;;;20.96;54.89;93942.41;5127222;28;20229;-77
2022/07/30 02:37:57;;;;;;;8.90;5.70;;;;;;;20.95;54.64;93942.81;5127019;28;20068;-77
2022/07/30 02:40:23;;;;;;;10.07;5.10;;;;;;;20.93;55.26;93937.00;5127169;28;20043;-77
2022/07/30 02:42:51;;;;;;;11.20;5.10;;;;;;;20.81;55.83;93927.25;5127157;28;20034;-77
2022/07/30 02:45:18;;;;;;;7.00;5.28;;;;;;;20.80;56.02;93933.78;5127000;28;20027;-77
2022/07/30 02:48:12;;;;;;;9.05;5.18;;;;;;;20.79;56.07;93930.31;5127153;28;20046;-77
2022/07/30 02:50:38;;;;;;;8.05;5.93;;;;;;;20.77;55.91;93932.63;5126051;28;20047;-76
2022/07/30 02:53:08;;;;;;;7.80;5.63;;;;;;;20.73;56.37;93933.75;5126925;28;20027;-77
2022/07/30 02:55:35;;;;;;;9.80;5.30;;;;;;;20.72;56.78;93929.47;5126935;28;20258;-77
2022/07/30 02:58:03;;;;;;;8.60;4.85;;;;;;;20.68;56.60;93925.97;5126855;28;20259;-77
2022/07/30 03:00:30;;;;;;;12.35;5.22;;;;;;;20.64;56.77;93926.72;5126766;28;20339;-77
2022/07/30 03:02:57;;;;;;;5.75;4.40;;;;;;;20.58;56.88;93922.81;5126777;28;20050;-77
2022/07/30 03:05:25;;;;;;;10.05;5.63;;;;;;;20.56;57.36;93922.38;5126706;28;20222;-77
2022/07/30 03:07:53;;;;;;;10.48;5.55;;;;;;;20.55;57.11;93923.53;5126542;28;20024;-77
2022/07/30 03:10:19;;;;;;;7.28;5.15;;;;;;;20.51;57.42;93928.13;5126576;27;20047;-77
2022/07/30 03:12:45;;;;;;;6.85;5.22;;;;;;;20.47;57.71;93911.06;5125518;28;20064;-77
2022/07/30 03:15:12;;;;;;;10.57;5.55;;;;;;;20.39;57.87;93915.69;5126703;28;20028;-76
2022/07/30 03:17:42;;;;;;;10.82;5.60;;;;;;;20.40;57.79;93911.03;5126343;28;20054;-76
2022/07/30 03:20:12;;;;;;;9.77;5.18;;;;;;;20.43;57.78;93918.41;5126299;28;20306;-76
2022/07/30 03:22:42;;;;;;;7.22;5.13;;;;;;;20.35;57.65;93916.78;5126267;28;20313;-76
2022/07/30 03:25:09;;;;;;;8.40;5.47;;;;;;;20.36;57.48;93921.06;5126356;28;20106;-76
2022/07/30 03:27:36;;;;;;;8.27;5.13;;;;;;;20.39;57.37;93925.72;5125325;28;20035;-76
2022/07/30 03:30:03;;;;;;;6.88;5.53;;;;;;;20.37;58.03;93919.88;5126208;28;20027;-76
2022/07/30 03:32:29;;;;;;;8.43;5.43;;;;;;;20.34;58.07;93923.34;5126243;28;20251;-76
2022/07/30 03:34:56;;;;;;;9.88;6.22;;;;;;;20.38;58.16;93926.88;5126032;28;20051;-76
2022/07/30 03:37:23;;;;;;;6.63;5.00;;;;;;;20.43;57.82;93926.50;5126081;28;20035;-76
2022/07/30 03:39:49;;;;;;;7.50;5.32;;;;;;;20.42;58.15;93923.03;5124835;28;20035;-76
2022/07/30 03:42:15;;;;;;;12.80;7.40;;;;;;;20.38;58.20;93932.28;5126034;28;20073;-76
2022/07/30 03:44:44;;;;;;;16.15;9.30;;;;;;;20.37;58.58;93922.59;5125903;28;20035;-77
2022/07/30 03:47:11;;;;;;;27.83;13.80;;;;;;;20.37;58.36;93922.59;5125769;28;20027;-77
2022/07/30 03:49:36;;;;;;;32.42;15.00;;;;;;;20.35;57.81;93927.59;5125808;28;20599;-77
2022/07/30 03:52:03;;;;;;;26.73;13.23;;;;;;;20.37;58.41;93933.41;5125712;28;20128;-77
2022/07/30 03:54:32;;;;;;;25.25;13.07;;;;;;;20.40;58.68;93932.69;5125544;28;20026;-76
2022/07/30 03:56:59;;;;;;;22.23;13.18;;;;;;;20.41;59.00;93939.66;5125662;28;20019;-76
2022/07/30 03:59:25;;;;;;;14.73;8.63;;;;;;;20.40;58.82;93928.03;5124449;28;20088;-76
2022/07/30 04:01:51;;;;;;;11.20;7.25;;;;;;;20.44;58.99;93930.78;5125446;28;20356;-76
2022/07/30 04:04:16;;;;;;;10.55;6.45;;;;;;;20.47;58.86;93938.16;5125697;28;20030;-77
2022/07/30 04:06:42;;;;;;;8.32;6.57;;;;;;;20.54;58.92;93943.66;5125481;28;20260;-76
2022/07/30 04:09:09;;;;;;;9.70;5.90;;;;;;;20.61;58.91;93932.88;5125318;28;20043;-76
2022/07/30 04:11:35;;;;;;;9.07;5.97;;;;;;;20.66;58.51;93933.69;5125485;28;20043;-76
2022/07/30 04:14:01;;;;;;;8.43;5.43;;;;;;;20.71;58.84;93944.97;5125391;28;20080;-76
2022/07/30 04:16:46;;;;;;;9.18;5.40;;;;;;;20.77;57.35;93953.53;5124921;28;20019;-76
2022/07/30 04:19:20;;;;;;;10.20;6.00;;;;;;;20.84;56.81;93946.22;5125362;28;20221;-76
2022/07/30 04:21:48;;;;;;;17.83;6.55;;;;;;;20.96;56.29;93947.06;5125372;28;20039;-77
2022/07/30 04:24:14;;;;;;;12.18;5.35;;;;;;;20.99;55.97;93951.75;5125146;28;20024;-76
2022/07/30 04:26:40;;;;;;;10.82;6.28;;;;;;;20.97;56.51;93954.81;5125054;28;20023;-76
2022/07/30 04:29:08;;;;;;;8.68;5.68;;;;;;;21.03;57.35;93947.91;5124956;28;20034;-76
2022/07/30 04:31:34;;;;;;;8.05;5.55;;;;;;;21.10;56.21;93951.81;5125165;28;20024;-78
2022/07/30 04:34:04;;;;;;;11.30;6.57;;;;;;;21.15;56.97;93954.94;5125001;28;20023;-77
2022/07/30 04:36:30;;;;;;;8.43;5.82;;;;;;;21.19;56.45;93949.56;5125105;28;20015;-77
2022/07/30 04:38:57;;;;;;;9.88;5.57;;;;;;;21.13;55.65;93956.50;5124729;28;20019;-76
2022/07/30 04:41:23;;;;;;;7.32;5.30;;;;;;;21.22;55.99;93954.22;5124711;28;20027;-77
2022/07/30 04:43:49;;;;;;;11.18;5.45;;;;;;;21.21;56.24;93952.66;5124868;28;20202;-78
2022/07/30 04:46:14;;;;;;;7.68;5.32;;;;;;;21.24;56.41;93952.66;5124975;28;20158;-79
2022/07/30 04:48:40;;;;;;;13.60;4.85;;;;;;;21.24;55.51;93957.31;5124773;28;20027;-83
2022/07/30 04:51:12;;;;;;;7.25;5.78;;;;;;;21.28;56.43;93960.81;5124541;28;20262;-78
2022/07/30 04:53:40;;;;;;;11.50;4.72;;;;;;;21.19;55.31;93952.28;5124680;28;20093;-79
2022/07/30 04:56:06;;;;;;;9.60;5.38;;;;;;;21.22;55.80;93957.69;5124485;28;20374;-79
2022/07/30 04:58:34;;;;;;;8.10;4.75;;;;;;;21.28;55.13;93958.13;5124429;28;20199;-79
2022/07/30 05:01:01;;;;;;;8.23;5.25;;;;;;;21.37;54.96;93953.16;5124256;28;20125;-78
2022/07/30 05:03:29;;;;;;;8.38;5.75;;;;;;;21.43;55.81;93951.66;5123354;28;20027;-78
2022/07/30 05:05:55;;;;;;;7.65;4.60;;;;;;;21.48;54.84;93945.09;5124234;28;20064;-79
2022/07/30 05:08:23;;;;;;;12.20;5.10;;;;;;;21.53;53.94;93942.00;5124231;28;20054;-81
2022/07/30 05:10:48;;;;;;;18.90;5.70;;;;;;;21.56;55.45;93935.06;5124459;28;20043;-80
2022/07/30 05:13:15;;;;;;;9.13;4.82;;;;;;;21.64;56.30;93937.41;5124415;27;20060;-87
2022/07/30 05:15:43;;;;;;;13.57;6.10;;;;;;;21.74;55.26;93941.31;5123775;28;20318;-83
2022/07/30 05:18:09;;;;;;;11.25;5.13;;;;;;;21.80;53.72;93937.09;5123654;28;20032;-82
2022/07/30 05:20:35;;;;;;;23.67;5.72;;;;;;;21.91;54.08;93945.25;5123805;28;20027;-82
2022/07/30 05:23:01;;;;;;;11.85;4.90;;;;;;;21.97;54.21;93943.72;5122288;28;20026;-82
2022/07/30 05:25:26;;;;;;;13.30;5.55;;;;;;;22.04;52.77;93942.94;5123994;28;20257;-82
2022/07/30 05:27:52;;;;;;;8.23;4.43;;;;;;;22.14;52.82;93944.91;5124038;28;20031;-82
2022/07/30 05:30:18;;;;;;;10.10;4.63;;;;;;;22.20;53.99;93954.22;5123914;28;20030;-82
2022/07/30 05:32:43;;;;;;;10.57;4.55;;;;;;;22.23;53.71;93950.78;5122734;28;20047;-82
2022/07/30 05:35:09;;;;;;;13.45;5.70;;;;;;;22.28;53.14;93959.72;5123051;28;20027;-82
2022/07/30 05:37:34;;;;;;;10.02;4.25;;;;;;;22.34;52.58;93947.31;5122527;28;20080;-82
2022/07/30 05:40:00;;;;;;;9.20;4.65;;;;;;;22.45;52.59;93948.13;5122300;28;20090;-82
2022/07/30 05:42:25;;;;;;;9.30;4.72;;;;;;;22.53;52.86;93951.59;5122596;28;20016;-82
2022/07/30 05:44:51;;;;;;;9.73;4.63;;;;;;;22.60;53.05;93952.38;5122376;28;20030;-82
2022/07/30 05:47:19;;;;;;;8.60;4.22;;;;;;;22.64;52.85;93953.16;5122419;28;20024;-82
2022/07/30 05:49:45;;;;;;;8.38;4.32;;;;;;;22.77;51.68;93953.56;5122578;28;20082;-82
2022/07/30 05:52:11;;;;;;;9.23;4.40;;;;;;;22.75;51.30;93946.97;5123503;28;20305;-83
2022/07/30 05:54:36;;;;;;;11.10;4.20;;;;;;;22.87;50.56;93952.00;5123339;28;20030;-83
2022/07/30 05:57:01;;;;;;;10.48;4.35;;;;;;;22.92;51.06;93946.19;5122308;28;20015;-83
2022/07/30 05:59:27;;;;;;;12.20;4.65;;;;;;;22.98;52.31;93944.63;5123617;28;20016;-83
2022/07/30 06:01:52;;;;;;;13.63;4.75;;;;;;;23.14;51.79;93943.47;5123512;28;20061;-83
2022/07/30 06:04:18;;;;;;;11.32;4.75;;;;;;;23.22;50.60;93945.78;5123497;28;20090;-83
2022/07/30 06:06:43;;;;;;;9.98;4.32;;;;;;;23.30;50.94;93948.47;5123238;28;20051;-83
2022/07/30 06:09:09;;;;;;;11.50;4.30;;;;;;;23.36;50.86;93955.06;5123349;28;20251;-83
2022/07/30 06:11:34;;;;;;;9.18;3.90;;;;;;;23.34;49.55;93958.19;5122101;28;20022;-83
2022/07/30 06:14:00;;;;;;;18.00;4.78;;;;;;;23.33;49.32;93959.34;5123213;28;20259;-83
2022/07/30 06:16:25;;;;;;;7.90;4.15;;;;;;;23.41;49.43;93966.34;5123220;28;20008;-83
2022/07/30 06:18:50;;;;;;;13.43;4.43;;;;;;;23.49;49.44;93963.59;5123328;28;20012;-83
2022/07/30 06:21:16;;;;;;;12.27;4.78;;;;;;;23.46;49.70;93967.09;5123471;28;20221;-83
2022/07/30 06:23:41;;;;;;;15.38;5.07;;;;;;;23.53;49.01;93972.50;5123220;28;20313;-83
2022/07/30 06:26:07;;;;;;;8.15;4.25;;;;;;;23.59;48.95;93960.84;5123220;28;20015;-83
2022/07/30 06:28:32;;;;;;;9.68;4.43;;;;;;;23.67;48.75;93956.16;5122951;28;20333;-84
2022/07/30 06:30:58;;;;;;;9.20;3.85;;;;;;;23.74;48.38;93955.34;5123075;28;20016;-83
2022/07/30 06:33:23;;;;;;;5.68;3.85;;;;;;;23.87;48.50;93951.03;5123319;28;20015;-83
2022/07/30 06:35:49;;;;;;;9.77;3.47;;;;;;;24.04;48.13;93957.59;5122206;28;20012;-84
2022/07/30 06:38:14;;;;;;;9.68;4.00;;;;;;;24.18;47.79;93952.06;5123116;28;20015;-84
2022/07/30 06:40:40;;;;;;;6.90;3.58;;;;;;;24.19;48.14;93956.34;5123176;28;20084;-83
2022/07/30 06:43:05;;;;;;;9.63;3.95;;;;;;;24.38;47.61;93946.91;5122918;28;20095;-84
2022/07/30 06:45:31;;;;;;;12.32;3.90;;;;;;;24.54;47.77;93945.66;5123077;28;20027;-83
2022/07/30 06:47:57;;;;;;;6.57;4.30;;;;;;;24.71;47.66;93949.41;5123127;28;20191;-83
2022/07/30 06:50:23;;;;;;;10.23;4.28;;;;;;;24.83;47.00;93940.72;5122764;28;20026;-84
2022/07/30 06:52:49;;;;;;;9.93;3.85;;;;;;;24.91;46.61;93944.19;5123044;28;20019;-84
2022/07/30 06:55:14;;;;;;;9.25;3.72;;;;;;;25.00;46.54;93937.09;5122906;28;20094;-84
2022/07/30 06:57:40;;;;;;;13.80;4.53;;;;;;;25.14;46.01;93933.47;5122855;28;20019;-83
2022/07/30 07:00:06;;;;;;;7.82;4.03;;;;;;;25.28;45.68;93931.78;5122895;28;20061;-84
2022/07/30 07:02:32;;;;;;;10.45;4.75;;;;;;;25.39;45.89;93927.78;5141064;27;20054;-84
2022/07/30 07:04:57;;;;;;;7.03;3.80;;;;;;;25.47;45.19;93927.72;5126703;28;20022;-84
2022/07/30 07:07:22;;;;;;;10.68;3.85;;;;;;;25.55;44.97;93924.50;5125251;28;21280;-84
2022/07/30 07:09:48;;;;;;;6.25;3.63;;;;;;;25.68;44.66;93921.22;5126886;28;20065;-84
2022/07/30 07:12:13;;;;;;;12.80;4.05;;;;;;;25.74;44.34;93920.38;5126563;28;20019;-84
2022/07/30 07:14:39;;;;;;;14.73;4.35;;;;;;;25.78;44.64;93923.06;5126443;28;20121;-84
2022/07/30 07:17:04;;;;;;;9.65;4.18;;;;;;;25.86;44.21;93929.22;5126299;28;20334;-85
2022/07/30 07:19:30;;;;;;;12.57;4.30;;;;;;;25.90;43.55;93924.50;5126397;28;20058;-85
2022/07/30 07:21:55;;;;;;;14.02;3.80;;;;;;;25.93;43.96;93920.94;5126476;28;20019;-85
2022/07/30 07:24:21;;;;;;;7.68;4.00;;;;;;;26.00;43.49;93912.66;5126374;28;20109;-85
2022/07/30 07:26:46;;;;;;;13.40;3.78;;;;;;;26.12;43.28;93905.88;5126282;27;20047;-85
2022/07/30 07:29:12;;;;;;;5.53;4.10;;;;;;;26.16;44.10;93923.75;5126366;28;20087;-85
2022/07/30 07:31:37;;;;;;;7.50;4.10;;;;;;;26.23;43.71;93917.41;5126398;27;20019;-85
2022/07/30 07:34:02;;;;;;;5.30;3.72;;;;;;;26.31;43.36;93918.09;5126108;28;20064;-85
2022/07/30 07:36:28;;;;;;;6.40;3.67;;;;;;;26.33;43.04;93923.91;5126279;28;20016;-85
2022/07/30 07:38:54;;;;;;;6.50;3.75;;;;;;;26.39;43.04;93917.56;5126169;27;20084;-85
2022/07/30 07:41:19;;;;;;;6.75;4.10;;;;;;;26.48;43.30;93911.59;5126113;28;20019;-85
2022/07/30 07:43:45;;;;;;;11.05;4.22;;;;;;;26.55;43.29;93907.97;5125977;28;20345;-85
2022/07/30 07:46:15;;;;;;;6.85;3.55;;;;;;;26.67;42.83;93907.44;5125901;28;20082;-85
2022/07/30 07:48:41;;;;;;;7.82;3.53;;;;;;;26.65;42.06;93912.53;5125966;28;20356;-85
2022/07/30 07:51:06;;;;;;;6.07;4.07;;;;;;;26.68;42.18;93913.66;5125746;28;20039;-86
2022/07/30 07:53:32;;;;;;;7.30;3.72;;;;;;;26.79;41.74;93925.97;5125938;27;20018;-86
2022/07/30 07:55:58;;;;;;;9.55;3.80;;;;;;;26.90;42.08;93909.38;5125770;28;20317;-85
2022/07/30 07:58:24;;;;;;;11.63;4.38;;;;;;;26.99;41.34;93920.56;5125611;28;20064;-86
2022/07/30 08:00:50;;;;;;;6.10;4.03;;;;;;;27.05;41.09;93911.88;5125851;27;20098;-86
2022/07/30 08:03:15;;;;;;;8.52;4.30;;;;;;;27.06;41.40;93902.50;5125519;28;20019;-86
2022/07/30 08:05:41;;;;;;;9.50;5.30;;;;;;;27.05;41.57;93903.66;5124465;28;20026;-87
2022/07/30 08:08:06;;;;;;;8.15;4.82;;;;;;;27.13;40.59;93916.03;5124337;28;20023;-87
2022/07/30 08:10:32;;;;;;;7.90;4.38;;;;;;;27.02;40.75;93917.00;5125609;28;20073;-87
2022/07/30 08:12:57;;;;;;;9.45;6.80;;;;;;;27.05;41.13;93903.66;5125094;28;20095;-87
2022/07/30 08:15:23;;;;;;;5.88;4.03;;;;;;;27.16;40.69;93912.47;5125417;28;20385;-87
2022/07/30 08:17:49;;;;;;;6.85;3.92;;;;;;;27.23;39.62;93906.88;5125478;28;20055;-87
2022/07/30 08:20:15;;;;;;;8.27;5.47;;;;;;;27.35;40.52;93913.72;5125310;28;20027;-87
2022/07/30 08:22:41;;;;;;;4.60;3.70;;;;;;;27.47;39.59;93907.63;5125278;28;20186;-86
2022/07/30 08:25:08;;;;;;;7.22;3.80;;;;;;;27.51;38.71;93913.78;5125185;28;20026;-87
2022/07/30 08:27:33;;;;;;;7.65;3.50;;;;;;;27.40;39.00;93903.06;5125135;28;20028;-87
2022/07/30 08:30:06;;;;;;;8.18;4.88;;;;;;;27.45;39.60;93901.03;5125227;28;20026;-87
2022/07/30 08:32:32;;;;;;;8.65;5.15;;;;;;;27.58;39.39;93899.22;5125004;28;20016;-87
2022/07/30 08:34:58;;;;;;;7.13;4.18;;;;;;;27.71;38.61;93902.09;5124998;28;20023;-88
2022/07/30 08:37:23;;;;;;;10.45;5.00;;;;;;;27.80;38.31;93903.06;5125323;28;20023;-87
2022/07/30 08:39:49;;;;;;;7.72;3.90;;;;;;;27.87;37.85;93904.91;5125136;28;20213;-87
2022/07/30 08:42:15;;;;;;;9.57;4.43;;;;;;;27.97;37.67;93900.41;5125240;28;20035;-87
2022/07/30 08:44:43;;;;;;;7.82;5.22;;;;;;;28.03;37.62;93898.72;5123984;28;20087;-88
2022/07/30 08:47:14;;;;;;;7.78;4.00;;;;;;;27.97;36.98;93894.94;5124838;27;20313;-87
2022/07/30 08:49:40;;;;;;;6.43;4.30;;;;;;;28.03;37.66;93893.22;5124903;28;20360;-88
2022/07/30 08:52:07;;;;;;;9.05;4.07;;;;;;;28.11;35.62;93900.09;5125106;28;20020;-87
2022/07/30 08:54:34;;;;;;;7.53;4.00;;;;;;;28.14;35.59;93888.28;5124817;28;20218;-88
2022/07/30 08:56:59;;;;;;;8.80;4.30;;;;;;;28.18;36.25;93878.00;5124579;28;20110;-88
2022/07/30 08:59:25;;;;;;;7.55;5.10;;;;;;;28.25;37.57;93876.31;5124975;28;20016;-89
2022/07/30 09:01:51;;;;;;;11.38;4.28;;;;;;;28.33;37.26;93883.16;5124865;28;20094;-88
2022/07/30 09:04:17;;;;;;;7.10;4.13;;;;;;;28.45;36.50;93874.25;5124529;28;20019;-88
2022/07/30 09:06:43;;;;;;;9.25;4.18;;;;;;;28.49;35.90;93869.47;5124183;28;20306;-88
2022/07/30 09:09:09;;;;;;;8.75;4.07;;;;;;;28.61;34.76;93871.56;5124381;28;20039;-88
2022/07/30 09:11:35;;;;;;;7.25;4.43;;;;;;;28.70;35.44;93867.44;5140640;27;20314;-88
2022/07/30 09:14:12;;;;;;;7.18;4.78;;;;;;;28.82;35.92;93861.25;5124478;27;20335;-88
2022/07/30 09:16:38;;;;;;;7.50;4.30;;;;;;;28.91;35.10;93866.91;5124107;28;20046;-88
2022/07/30 09:19:23;;;;;;;7.32;4.80;;;;;;;29.02;35.83;93858.41;5124409;28;20080;-89
2022/07/30 09:21:59;;;;;;;7.22;4.97;;;;;;;29.04;36.24;93850.50;5124415;28;20023;-89
2022/07/30 09:24:26;;;;;;;5.82;4.18;;;;;;;29.13;35.06;93856.19;5123722;28;20023;-89
2022/07/30 09:26:58;;;;;;;6.05;4.53;;;;;;;29.22;35.29;93850.06;5124235;28;20015;-86
2022/07/30 09:29:28;;;;;;;6.05;4.68;;;;;;;29.32;35.25;93853.72;5123163;28;20065;-88
2022/07/30 09:32:05;;;;;;;13.15;4.60;;;;;;;29.42;34.27;93846.41;5124513;28;20015;-88
2022/07/30 09:34:38;;;;;;;8.02;3.83;;;;;;;29.55;33.54;93849.94;5124127;28;20030;-87
2022/07/30 09:37:10;;;;;;;12.25;3.60;;;;;;;29.54;33.59;93848.44;5124175;28;20023;-88
2022/07/30 09:39:41;;;;;;;6.25;4.85;;;;;;;29.55;34.70;93844.47;5122817;28;20061;-88
2022/07/30 09:42:24;;;;;;;6.27;3.53;;;;;;;29.65;33.16;93845.38;5123946;28;20023;-88
2022/07/30 09:44:51;;;;;;;6.60;4.15;;;;;;;29.71;33.92;93849.91;5123909;28;20095;-89
2022/07/30 09:47:34;;;;;;;5.60;4.03;;;;;;;29.84;34.14;93855.44;5124039;28;20047;-87
2022/07/30 09:50:03;;;;;;;7.03;4.25;;;;;;;29.90;33.21;93847.41;5123849;28;20027;-88
2022/07/30 09:52:28;;;;;;;8.02;4.20;;;;;;;29.96;33.38;93842.91;5123908;28;20233;-88
2022/07/30 09:54:54;;;;;;;6.13;3.92;;;;;;;30.04;32.54;93827.75;5124082;28;20031;-88
2022/07/30 09:57:19;;;;;;;8.02;3.85;;;;;;;30.16;32.33;93829.72;5123675;28;20019;-88
2022/07/30 09:59:45;;;;;;;9.60;4.10;;;;;;;30.22;32.72;93821.69;5123635;28;20137;-88
2022/07/30 10:02:11;;;;;;;5.07;3.95;;;;;;;30.28;33.01;93824.66;5123661;28;20029;-88
2022/07/30 10:04:36;;;;;;;7.30;3.97;;;;;;;30.30;30.56;93822.28;5123625;28;20066;-88
2022/07/30 10:07:04;;;;;;;6.43;4.15;;;;;;;30.28;32.36;93821.91;5123526;28;20027;-88
2022/07/30 10:09:31;;;;;;;7.40;4.25;;;;;;;30.34;32.46;93820.19;5123618;28;20035;-88
2022/07/30 10:11:59;;;;;;;8.32;3.92;;;;;;;30.40;33.44;93810.94;5123683;28;20068;-88
2022/07/30 10:14:28;;;;;;;5.60;3.83;;;;;;;30.46;32.61;93811.16;5123863;28;20093;-88
2022/07/30 10:16:55;;;;;;;6.25;4.57;;;;;;;30.49;32.09;93806.75;5123720;28;20051;-88
2022/07/30 10:19:21;;;;;;;7.40;3.90;;;;;;;30.47;31.19;93809.16;5123644;28;20046;-89
2022/07/30 10:21:48;;;;;;;5.10;3.85;;;;;;;30.56;32.45;93806.53;5122472;28;20023;-88
2022/07/30 10:24:17;;;;;;;8.57;4.25;;;;;;;30.57;31.66;93805.28;5123373;28;20409;-87
2022/07/30 10:26:43;;;;;;;6.85;4.07;;;;;;;30.65;32.48;93794.84;5123552;28;20028;-88
2022/07/30 10:29:08;;;;;;;10.90;4.43;;;;;;;30.77;31.86;93794.03;5123322;28;20047;-88
2022/07/30 10:31:34;;;;;;;8.38;3.83;;;;;;;30.81;32.32;93789.16;5123258;28;20019;-90
2022/07/30 10:34:00;;;;;;;7.75;4.13;;;;;;;30.89;31.66;93795.22;5123408;28;20097;-88
2022/07/30 10:36:27;;;;;;;6.72;4.60;;;;;;;30.92;31.47;93783.34;5125901;28;20027;-88
2022/07/30 10:38:53;;;;;;;5.88;4.40;;;;;;;30.89;32.24;93784.97;5127472;28;20027;-88
2022/07/30 10:41:34;;;;;;;9.82;4.50;;;;;;;30.93;32.29;93779.38;5127442;28;20024;-88
2022/07/30 10:44:55;;;;;;;9.93;5.63;;;;;;;30.74;30.02;93779.19;5127286;28;20035;-87
2022/07/30 10:47:24;;;;;;;9.13;5.38;;;;;;;30.74;31.86;93781.19;5064383;28;20033;-88
2022/07/30 10:50:21;;;;;;;10.65;5.03;;;;;;;30.88;31.07;93775.22;5115408;28;20078;-88
2022/07/30 10:52:55;;;;;;;7.30;4.50;;;;;;;30.90;31.44;93772.03;5122612;28;20027;-88
2022/07/30 10:55:29;;;;;;;8.55;5.72;;;;;;;30.96;31.28;93779.25;5127268;28;20023;-88
2022/07/30 10:58:07;;;;;;;7.80;5.50;;;;;;;31.07;30.85;93765.09;5127363;28;20019;-88
2022/07/30 11:00:36;;;;;;;6.78;4.72;;;;;;;31.14;31.54;93764.88;5126926;28;20034;-87
2022/07/30 11:03:12;;;;;;;8.38;4.63;;;;;;;31.23;30.69;93766.13;5125748;28;20053;-88
2022/07/30 11:05:37;;;;;;;7.05;4.72;;;;;;;31.33;31.53;93763.00;5126883;28;20037;-88
2022/07/30 11:08:36;;;;;;;8.20;4.80;;;;;;;31.47;30.68;93755.44;5126943;28;20266;-87
2022/07/30 11:11:03;;;;;;;9.80;4.93;;;;;;;31.57;31.42;93749.53;5126617;28;20027;-87
2022/07/30 11:13:53;;;;;;;7.75;4.60;;;;;;;31.63;31.05;93738.72;5126893;28;20031;-87
2022/07/30 11:16:20;;;;;;;8.70;4.80;;;;;;;31.66;29.92;93740.53;5126488;27;20362;-87
2022/07/30 11:19:10;;;;;;;7.75;5.25;;;;;;;31.67;30.46;93733.03;5126728;28;20027;-88
2022/07/30 11:21:36;;;;;;;6.00;4.70;;;;;;;31.74;30.35;93739.06;5126524;28;20310;-88
2022/07/30 11:24:02;;;;;;;10.90;5.88;;;;;;;31.84;30.66;93739.88;5126572;28;20103;-87
2022/07/30 11:26:45;;;;;;;7.43;5.20;;;;;;;31.95;30.40;93729.16;5126555;28;20050;-88
2022/07/30 11:29:37;;;;;;;8.95;6.68;;;;;;;32.06;30.59;93725.25;5126342;28;20250;-87
2022/07/30 11:32:25;;;;;;;9.15;7.30;;;;;;;32.06;29.92;93720.53;5126369;27;20341;-87
2022/07/30 11:35:14;;;;;;;10.13;4.97;;;;;;;32.14;29.72;93721.78;5126453;28;20046;-87
2022/07/30 11:38:01;;;;;;;9.02;5.85;;;;;;;32.30;29.93;93722.72;5126213;27;20115;-88